PWSweather.com
Personal Weather Stations
Station Observations
KMIEASTT1
Tawas Bay, East Tawas, MI 48730

Tawas BayEast Tawas, MI 48730

Lat: 44.28, Lon: -83.48

Elevation: 600

Station Type: Davis VantagePro

http://www.tawasbayweather.com

High Low Average
Temperature 39.0°F3.9°C 32.6°F0.3°C 35.4°F1.9°C
Dew Point 32.3°F0.2°C 20.5°F-6.4°C 28.3°F-2.1°C
Winds 16.0 mph 25.7 kmh 4.0 mph 6.4 kmh 10.0 mph SW16.1 kmh SW
Wind Gusts 20.0 mph32.2 kmh 7.0 mph11.3 kmh 14.0 mph22.5 kmh
Humidity 94% 47% 76%
Pressure 29.59 in1002.0 mb 29.38 in994.9 mb -
Precipitation 0.00 in0.0 mm - -
Hour Temp Dew Point Humidity Winds Wind Gusts Pressure Precip Precip Rate Daily Precip Total
12:00 AM 34.8°F1.6°C 31.9°F-0.1°C 89% 7.0 mph SW11.3 kmh SW 10.0 mph16.1 kmh 29.59 in1002.0 mb 0.00 in0.0 mm 0.00 in/hr0.0 mm/hr 0.00 in0.0 mm
12:15 AM 34.6°F1.4°C 32.0°F0.0°C 90% 6.0 mph SW9.7 kmh SW 10.0 mph16.1 kmh 29.58 in1001.7 mb 0.00 in0.0 mm 0.00 in/hr0.0 mm/hr 0.00 in0.0 mm
12:31 AM 34.4°F1.3°C 31.8°F-0.1°C 90% 8.0 mph SW12.9 kmh SW 11.0 mph17.7 kmh 29.58 in1001.7 mb 0.00 in0.0 mm 0.00 in/hr0.0 mm/hr 0.00 in0.0 mm
12:46 AM 34.3°F1.3°C 31.7°F-0.2°C 90% 8.0 mph S12.9 kmh S 10.0 mph16.1 kmh 29.58 in1001.7 mb 0.00 in0.0 mm 0.00 in/hr0.0 mm/hr 0.00 in0.0 mm
01:00 AM 34.2°F1.2°C 31.9°F-0.1°C 91% 7.0 mph SSW11.3 kmh SSW 10.0 mph16.1 kmh 29.58 in1001.7 mb 0.00 in0.0 mm 0.00 in/hr0.0 mm/hr 0.00 in0.0 mm
01:17 AM 33.9°F1.1°C 31.6°F-0.2°C 91% 9.0 mph SW14.5 kmh SW 11.0 mph17.7 kmh 29.58 in1001.7 mb 0.00 in0.0 mm 0.00 in/hr0.0 mm/hr 0.00 in0.0 mm
01:31 AM 33.5°F0.8°C 31.2°F-0.4°C 91% 7.0 mph SW11.3 kmh SW 9.0 mph14.5 kmh 29.57 in1001.4 mb 0.00 in0.0 mm 0.00 in/hr0.0 mm/hr 0.00 in0.0 mm
01:46 AM 33.7°F0.9°C 31.6°F-0.2°C 92% 9.0 mph SW14.5 kmh SW 13.0 mph20.9 kmh 29.57 in1001.4 mb 0.00 in0.0 mm 0.00 in/hr0.0 mm/hr 0.00 in0.0 mm
02:02 AM 33.7°F0.9°C 31.4°F-0.3°C 91% 7.0 mph SW11.3 kmh SW 13.0 mph20.9 kmh 29.57 in1001.4 mb 0.00 in0.0 mm 0.00 in/hr0.0 mm/hr 0.00 in0.0 mm
02:16 AM 33.3°F0.7°C 31.2°F-0.4°C 92% 9.0 mph SW14.5 kmh SW 11.0 mph17.7 kmh 29.57 in1001.4 mb 0.00 in0.0 mm 0.00 in/hr0.0 mm/hr 0.00 in0.0 mm
02:31 AM 33.3°F0.7°C 31.2°F-0.4°C 92% 7.0 mph SW11.3 kmh SW 12.0 mph19.3 kmh 29.57 in1001.4 mb 0.00 in0.0 mm 0.00 in/hr0.0 mm/hr 0.00 in0.0 mm
02:46 AM 33.4°F0.8°C 31.3°F-0.4°C 92% 10.0 mph SW16.1 kmh SW 10.0 mph16.1 kmh 29.56 in1001.0 mb 0.00 in0.0 mm 0.00 in/hr0.0 mm/hr 0.00 in0.0 mm
03:02 AM 33.7°F0.9°C 31.6°F-0.2°C 92% 9.0 mph SW14.5 kmh SW 11.0 mph17.7 kmh 29.56 in1001.0 mb 0.00 in0.0 mm 0.00 in/hr0.0 mm/hr 0.00 in0.0 mm
03:16 AM 34.1°F1.2°C 31.8°F-0.1°C 91% 9.0 mph S14.5 kmh S 12.0 mph19.3 kmh 29.55 in1000.7 mb 0.00 in0.0 mm 0.00 in/hr0.0 mm/hr 0.00 in0.0 mm
03:32 AM 34.0°F1.1°C 31.9°F-0.1°C 92% 9.0 mph SW14.5 kmh SW 11.0 mph17.7 kmh 29.54 in1000.3 mb 0.00 in0.0 mm 0.00 in/hr0.0 mm/hr 0.00 in0.0 mm
03:46 AM 34.1°F1.2°C 31.8°F-0.1°C 91% 10.0 mph SW16.1 kmh SW 13.0 mph20.9 kmh 29.54 in1000.3 mb 0.00 in0.0 mm 0.00 in/hr0.0 mm/hr 0.00 in0.0 mm
04:03 AM 34.1°F1.2°C 32.0°F0.0°C 92% 11.0 mph SW17.7 kmh SW 12.0 mph19.3 kmh 29.53 in1000.0 mb 0.00 in0.0 mm 0.00 in/hr0.0 mm/hr 0.00 in0.0 mm
04:16 AM 34.3°F1.3°C 32.2°F0.1°C 92% 7.0 mph SW11.3 kmh SW 12.0 mph19.3 kmh 29.53 in1000.0 mb 0.00 in0.0 mm 0.00 in/hr0.0 mm/hr 0.00 in0.0 mm
04:31 AM 34.4°F1.3°C 32.3°F0.2°C 92% 7.0 mph WSW11.3 kmh WSW 12.0 mph19.3 kmh 29.52 in999.7 mb 0.00 in0.0 mm 0.00 in/hr0.0 mm/hr 0.00 in0.0 mm
04:46 AM 33.3°F0.7°C 31.8°F-0.1°C 94% 10.0 mph W16.1 kmh W 11.0 mph17.7 kmh 29.53 in1000.0 mb 0.00 in0.0 mm 0.00 in/hr0.0 mm/hr 0.00 in0.0 mm
05:01 AM 34.0°F1.1°C 31.1°F-0.5°C 89% 9.0 mph WSW14.5 kmh WSW 13.0 mph20.9 kmh 29.53 in1000.0 mb 0.01 in0.3 mm 0.01 in/hr0.3 mm/hr 0.01 in0.3 mm
05:16 AM 34.0°F1.1°C 31.4°F-0.3°C 90% 9.0 mph WSW14.5 kmh WSW 10.0 mph16.1 kmh 29.53 in1000.0 mb 0.01 in0.3 mm 0.00 in/hr0.0 mm/hr 0.01 in0.3 mm
05:31 AM 34.0°F1.1°C 31.4°F-0.3°C 90% 7.0 mph WSW11.3 kmh WSW 9.0 mph14.5 kmh 29.52 in999.7 mb 0.01 in0.3 mm 0.00 in/hr0.0 mm/hr 0.01 in0.3 mm
05:46 AM 34.0°F1.1°C 31.1°F-0.5°C 89% 10.0 mph SW16.1 kmh SW 10.0 mph16.1 kmh 29.52 in999.7 mb 0.01 in0.3 mm 0.00 in/hr0.0 mm/hr 0.01 in0.3 mm
06:00 AM 34.1°F1.2°C 30.6°F-0.8°C 87% 9.0 mph WSW14.5 kmh WSW 11.0 mph17.7 kmh 29.52 in999.7 mb 0.01 in0.3 mm 0.00 in/hr0.0 mm/hr 0.01 in0.3 mm
06:16 AM 33.9°F1.1°C 30.5°F-0.8°C 87% 5.0 mph SW8.0 kmh SW 8.0 mph12.9 kmh 29.52 in999.7 mb 0.00 in0.0 mm 0.00 in/hr0.0 mm/hr 0.01 in0.3 mm
06:31 AM 34.1°F1.2°C 29.5°F-1.4°C 83% 11.0 mph WSW17.7 kmh WSW 16.0 mph25.7 kmh 29.52 in999.7 mb 0.00 in0.0 mm 0.00 in/hr0.0 mm/hr 0.01 in0.3 mm
06:45 AM 34.0°F1.1°C 29.1°F-1.6°C 82% 10.0 mph WSW16.1 kmh WSW 18.0 mph29.0 kmh 29.51 in999.3 mb 0.00 in0.0 mm 0.00 in/hr0.0 mm/hr 0.01 in0.3 mm
07:03 AM 34.1°F1.2°C 28.9°F-1.7°C 81% 13.0 mph SW20.9 kmh SW 15.0 mph24.1 kmh 29.50 in999.0 mb 0.00 in0.0 mm 0.00 in/hr0.0 mm/hr 0.01 in0.3 mm
07:16 AM 33.8°F1.0°C 28.3°F-2.1°C 80% 12.0 mph WSW19.3 kmh WSW 18.0 mph29.0 kmh 29.51 in999.3 mb 0.00 in0.0 mm 0.00 in/hr0.0 mm/hr 0.01 in0.3 mm
07:31 AM 33.4°F0.8°C 28.2°F-2.1°C 81% 11.0 mph SW17.7 kmh SW 15.0 mph24.1 kmh 29.51 in999.3 mb 0.00 in0.0 mm 0.00 in/hr0.0 mm/hr 0.01 in0.3 mm
07:46 AM 33.0°F0.6°C 28.4°F-2.0°C 83% 9.0 mph SW14.5 kmh SW 15.0 mph24.1 kmh 29.51 in999.3 mb 0.00 in0.0 mm 0.00 in/hr0.0 mm/hr 0.01 in0.3 mm
08:02 AM 32.9°F0.5°C 27.7°F-2.4°C 81% 9.0 mph SW14.5 kmh SW 17.0 mph27.4 kmh 29.51 in999.3 mb 0.00 in0.0 mm 0.00 in/hr0.0 mm/hr 0.01 in0.3 mm
08:15 AM 32.6°F0.3°C 27.7°F-2.4°C 82% 8.0 mph SW12.9 kmh SW 16.0 mph25.7 kmh 29.52 in999.7 mb 0.00 in0.0 mm 0.00 in/hr0.0 mm/hr 0.01 in0.3 mm
08:31 AM 32.9°F0.5°C 27.4°F-2.6°C 80% 10.0 mph SW16.1 kmh SW 15.0 mph24.1 kmh 29.51 in999.3 mb 0.00 in0.0 mm 0.00 in/hr0.0 mm/hr 0.01 in0.3 mm
08:46 AM 32.8°F0.4°C 27.0°F-2.8°C 79% 16.0 mph SW25.7 kmh SW 16.0 mph25.7 kmh 29.51 in999.3 mb 0.00 in0.0 mm 0.00 in/hr0.0 mm/hr 0.01 in0.3 mm
09:02 AM 33.1°F0.6°C 26.7°F-2.9°C 77% 11.0 mph SW17.7 kmh SW 17.0 mph27.4 kmh 29.51 in999.3 mb 0.00 in0.0 mm 0.00 in/hr0.0 mm/hr 0.01 in0.3 mm
09:16 AM 33.5°F0.8°C 26.8°F-2.9°C 76% 15.0 mph W24.1 kmh W 20.0 mph32.2 kmh 29.51 in999.3 mb 0.00 in0.0 mm 0.00 in/hr0.0 mm/hr 0.01 in0.3 mm
09:31 AM 33.3°F0.7°C 26.6°F-3.0°C 76% 11.0 mph SW17.7 kmh SW 17.0 mph27.4 kmh 29.50 in999.0 mb 0.00 in0.0 mm 0.00 in/hr0.0 mm/hr 0.01 in0.3 mm
09:45 AM 33.5°F0.8°C 27.1°F-2.7°C 77% 10.0 mph WSW16.1 kmh WSW 12.0 mph19.3 kmh 29.50 in999.0 mb 0.00 in0.0 mm 0.00 in/hr0.0 mm/hr 0.01 in0.3 mm
10:02 AM 34.0°F1.1°C 27.2°F-2.7°C 76% 12.0 mph WSW19.3 kmh WSW 14.0 mph22.5 kmh 29.49 in998.6 mb 0.00 in0.0 mm 0.00 in/hr0.0 mm/hr 0.01 in0.3 mm
10:15 AM 34.5°F1.4°C 27.4°F-2.6°C 75% 10.0 mph WSW16.1 kmh WSW 16.0 mph25.7 kmh 29.49 in998.6 mb 0.00 in0.0 mm 0.00 in/hr0.0 mm/hr 0.01 in0.3 mm
10:31 AM 34.8°F1.6°C 27.4°F-2.6°C 74% 13.0 mph SW20.9 kmh SW 15.0 mph24.1 kmh 29.48 in998.3 mb 0.00 in0.0 mm 0.00 in/hr0.0 mm/hr 0.01 in0.3 mm
10:47 AM 35.1°F1.7°C 28.0°F-2.2°C 75% 15.0 mph SW24.1 kmh SW 15.0 mph24.1 kmh 29.48 in998.3 mb 0.00 in0.0 mm 0.00 in/hr0.0 mm/hr 0.01 in0.3 mm
11:03 AM 35.7°F2.1°C 28.2°F-2.1°C 74% 10.0 mph WSW16.1 kmh WSW 12.0 mph19.3 kmh 29.47 in998.0 mb 0.00 in0.0 mm 0.00 in/hr0.0 mm/hr 0.01 in0.3 mm
11:16 AM 36.1°F2.3°C 27.3°F-2.6°C 70% 12.0 mph SW19.3 kmh SW 18.0 mph29.0 kmh 29.47 in998.0 mb 0.00 in0.0 mm 0.00 in/hr0.0 mm/hr 0.01 in0.3 mm
11:31 AM 36.0°F2.2°C 26.8°F-2.9°C 69% 12.0 mph WSW19.3 kmh WSW 17.0 mph27.4 kmh 29.47 in998.0 mb 0.00 in0.0 mm 0.00 in/hr0.0 mm/hr 0.01 in0.3 mm
11:46 AM 36.2°F2.3°C 27.4°F-2.6°C 70% 12.0 mph WSW19.3 kmh WSW 14.0 mph22.5 kmh 29.46 in997.6 mb 0.00 in0.0 mm 0.00 in/hr0.0 mm/hr 0.01 in0.3 mm
12:02 PM 37.2°F2.9°C 26.9°F-2.8°C 66% 12.0 mph WSW19.3 kmh WSW 15.0 mph24.1 kmh 29.46 in997.6 mb 0.00 in0.0 mm 0.00 in/hr0.0 mm/hr 0.01 in0.3 mm
12:16 PM 36.7°F2.6°C 26.4°F-3.1°C 66% 13.0 mph WSW20.9 kmh WSW 16.0 mph25.7 kmh 29.45 in997.3 mb 0.00 in0.0 mm 0.00 in/hr0.0 mm/hr 0.01 in0.3 mm
12:30 PM 36.8°F2.7°C 27.2°F-2.7°C 68% 11.0 mph WSW17.7 kmh WSW 18.0 mph29.0 kmh 29.45 in997.3 mb 0.00 in0.0 mm 0.00 in/hr0.0 mm/hr 0.01 in0.3 mm
12:46 PM 36.7°F2.6°C 27.2°F-2.7°C 68% 16.0 mph SW25.7 kmh SW 16.0 mph25.7 kmh 29.44 in997.0 mb 0.00 in0.0 mm 0.00 in/hr0.0 mm/hr 0.01 in0.3 mm
01:03 PM 37.0°F2.8°C 27.1°F-2.7°C 67% 12.0 mph WSW19.3 kmh WSW 19.0 mph30.6 kmh 29.44 in997.0 mb 0.00 in0.0 mm 0.00 in/hr0.0 mm/hr 0.01 in0.3 mm
01:15 PM 36.7°F2.6°C 26.4°F-3.1°C 66% 11.0 mph WSW17.7 kmh WSW 16.0 mph25.7 kmh 29.43 in996.6 mb 0.00 in0.0 mm 0.00 in/hr0.0 mm/hr 0.01 in0.3 mm
01:31 PM 37.3°F2.9°C 26.3°F-3.2°C 64% 11.0 mph WSW17.7 kmh WSW 19.0 mph30.6 kmh 29.43 in996.6 mb 0.00 in0.0 mm 0.00 in/hr0.0 mm/hr 0.01 in0.3 mm
01:46 PM 38.4°F3.6°C 25.7°F-3.5°C 60% 14.0 mph WSW22.5 kmh WSW 16.0 mph25.7 kmh 29.42 in996.3 mb 0.00 in0.0 mm 0.00 in/hr0.0 mm/hr 0.01 in0.3 mm
02:00 PM 38.0°F3.3°C 25.4°F-3.7°C 60% 14.0 mph SW22.5 kmh SW 18.0 mph29.0 kmh 29.42 in996.3 mb 0.00 in0.0 mm 0.00 in/hr0.0 mm/hr 0.01 in0.3 mm
02:17 PM 38.0°F3.3°C 25.8°F-3.4°C 61% 9.0 mph WSW14.5 kmh WSW 14.0 mph22.5 kmh 29.41 in995.9 mb 0.00 in0.0 mm 0.00 in/hr0.0 mm/hr 0.01 in0.3 mm
02:31 PM 37.8°F3.2°C 26.7°F-2.9°C 64% 10.0 mph WSW16.1 kmh WSW 14.0 mph22.5 kmh 29.40 in995.6 mb 0.00 in0.0 mm 0.00 in/hr0.0 mm/hr 0.01 in0.3 mm
02:46 PM 38.5°F3.6°C 25.8°F-3.4°C 60% 13.0 mph SW20.9 kmh SW 19.0 mph30.6 kmh 29.39 in995.3 mb 0.00 in0.0 mm 0.00 in/hr0.0 mm/hr 0.01 in0.3 mm
03:02 PM 38.2°F3.4°C 26.0°F-3.3°C 61% 10.0 mph WSW16.1 kmh WSW 17.0 mph27.4 kmh 29.39 in995.3 mb 0.00 in0.0 mm 0.00 in/hr0.0 mm/hr 0.01 in0.3 mm
03:17 PM 38.9°F3.8°C 26.2°F-3.2°C 60% 11.0 mph SW17.7 kmh SW 19.0 mph30.6 kmh 29.39 in995.3 mb 0.00 in0.0 mm 0.00 in/hr0.0 mm/hr 0.01 in0.3 mm
03:31 PM 37.9°F3.3°C 26.8°F-2.9°C 64% 13.0 mph WSW20.9 kmh WSW 14.0 mph22.5 kmh 29.39 in995.3 mb 0.00 in0.0 mm 0.00 in/hr0.0 mm/hr 0.01 in0.3 mm
03:45 PM 38.4°F3.6°C 26.5°F-3.1°C 62% 11.0 mph WSW17.7 kmh WSW 14.0 mph22.5 kmh 29.39 in995.3 mb 0.00 in0.0 mm 0.00 in/hr0.0 mm/hr 0.01 in0.3 mm
04:03 PM 38.7°F3.7°C 26.0°F-3.3°C 60% 8.0 mph WSW12.9 kmh WSW 16.0 mph25.7 kmh 29.39 in995.3 mb 0.00 in0.0 mm 0.00 in/hr0.0 mm/hr 0.01 in0.3 mm
04:15 PM 38.8°F3.8°C 25.7°F-3.5°C 59% 9.0 mph WSW14.5 kmh WSW 15.0 mph24.1 kmh 29.39 in995.3 mb 0.00 in0.0 mm 0.00 in/hr0.0 mm/hr 0.01 in0.3 mm
04:31 PM 38.6°F3.7°C 26.3°F-3.2°C 61% 9.0 mph SW14.5 kmh SW 17.0 mph27.4 kmh 29.39 in995.3 mb 0.00 in0.0 mm 0.00 in/hr0.0 mm/hr 0.01 in0.3 mm
04:47 PM 38.6°F3.7°C 25.5°F-3.6°C 59% 11.0 mph SW17.7 kmh SW 16.0 mph25.7 kmh 29.39 in995.3 mb 0.00 in0.0 mm 0.00 in/hr0.0 mm/hr 0.01 in0.3 mm
05:02 PM 38.7°F3.7°C 25.6°F-3.6°C 59% 6.0 mph WSW9.7 kmh WSW 15.0 mph24.1 kmh 29.38 in994.9 mb 0.00 in0.0 mm 0.00 in/hr0.0 mm/hr 0.01 in0.3 mm
05:15 PM 39.0°F3.9°C 24.7°F-4.1°C 56% 9.0 mph WSW14.5 kmh WSW 16.0 mph25.7 kmh 29.38 in994.9 mb 0.00 in0.0 mm 0.00 in/hr0.0 mm/hr 0.01 in0.3 mm
05:31 PM 37.8°F3.2°C 24.8°F-4.0°C 59% 6.0 mph WSW9.7 kmh WSW 10.0 mph16.1 kmh 29.39 in995.3 mb 0.00 in0.0 mm 0.00 in/hr0.0 mm/hr 0.01 in0.3 mm
05:46 PM 37.9°F3.3°C 25.3°F-3.7°C 60% 7.0 mph WSW11.3 kmh WSW 8.0 mph12.9 kmh 29.39 in995.3 mb 0.00 in0.0 mm 0.00 in/hr0.0 mm/hr 0.01 in0.3 mm
06:02 PM 37.4°F3.0°C 23.6°F-4.7°C 57% 7.0 mph WSW11.3 kmh WSW 10.0 mph16.1 kmh 29.40 in995.6 mb 0.00 in0.0 mm 0.00 in/hr0.0 mm/hr 0.01 in0.3 mm
06:16 PM 38.4°F3.6°C 21.9°F-5.6°C 51% 8.0 mph W12.9 kmh W 10.0 mph16.1 kmh 29.40 in995.6 mb 0.00 in0.0 mm 0.00 in/hr0.0 mm/hr 0.01 in0.3 mm
06:31 PM 39.0°F3.9°C 20.5°F-6.4°C 47% 4.0 mph WSW6.4 kmh WSW 7.0 mph11.3 kmh 29.40 in995.6 mb 0.00 in0.0 mm 0.00 in/hr0.0 mm/hr 0.01 in0.3 mm
06:46 PM 38.3°F3.5°C 20.8°F-6.2°C 49% 2.0 mph WSW3.2 kmh WSW 5.0 mph8.0 kmh 29.40 in995.6 mb 0.00 in0.0 mm 0.00 in/hr0.0 mm/hr 0.01 in0.3 mm
07:02 PM 38.0°F3.3°C 20.6°F-6.3°C 49% 3.0 mph W4.8 kmh W 6.0 mph9.7 kmh 29.41 in995.9 mb 0.00 in0.0 mm 0.00 in/hr0.0 mm/hr 0.01 in0.3 mm
07:16 PM 37.7°F3.2°C 20.3°F-6.5°C 49% 1.0 mph NW1.6 kmh NW 3.0 mph4.8 kmh 29.41 in995.9 mb 0.00 in0.0 mm 0.00 in/hr0.0 mm/hr 0.01 in0.3 mm
07:31 PM 36.5°F2.5°C 21.0°F-6.1°C 53% 2.0 mph WNW3.2 kmh WNW 3.0 mph4.8 kmh 29.41 in995.9 mb 0.00 in0.0 mm 0.00 in/hr0.0 mm/hr 0.01 in0.3 mm
07:45 PM 36.0°F2.2°C 21.8°F-5.7°C 56% 1.0 mph WNW1.6 kmh WNW 4.0 mph6.4 kmh 29.42 in996.3 mb 0.00 in0.0 mm 0.00 in/hr0.0 mm/hr 0.01 in0.3 mm
08:02 PM 35.3°F1.8°C 21.6°F-5.8°C 57% 1.0 mph W1.6 kmh W 2.0 mph3.2 kmh 29.42 in996.3 mb 0.00 in0.0 mm 0.00 in/hr0.0 mm/hr 0.01 in0.3 mm
08:16 PM 34.6°F1.4°C 21.8°F-5.7°C 59% 2.0 mph W3.2 kmh W 2.0 mph3.2 kmh 29.42 in996.3 mb 0.00 in0.0 mm 0.00 in/hr0.0 mm/hr 0.01 in0.3 mm
08:31 PM 33.5°F0.8°C 22.3°F-5.4°C 63% 2.0 mph NW3.2 kmh NW 4.0 mph6.4 kmh 29.42 in996.3 mb 0.00 in0.0 mm 0.00 in/hr0.0 mm/hr 0.01 in0.3 mm
08:46 PM 33.1°F0.6°C 22.6°F-5.2°C 65% 1.0 mph NW1.6 kmh NW 1.0 mph1.6 kmh 29.43 in996.6 mb 0.00 in0.0 mm 0.00 in/hr0.0 mm/hr 0.01 in0.3 mm
09:03 PM 32.9°F0.5°C 22.4°F-5.3°C 65% Calm Calm -- 29.43 in996.6 mb 0.00 in0.0 mm 0.00 in/hr0.0 mm/hr 0.01 in0.3 mm
09:16 PM 33.0°F0.6°C 22.9°F-5.1°C 66% Calm Calm -- 29.43 in996.6 mb 0.00 in0.0 mm 0.00 in/hr0.0 mm/hr 0.01 in0.3 mm
09:31 PM 33.2°F0.7°C 24.2°F-4.3°C 69% Calm Calm -- 29.43 in996.6 mb 0.00 in0.0 mm 0.00 in/hr0.0 mm/hr 0.01 in0.3 mm
09:46 PM 33.3°F0.7°C 23.5°F-4.7°C 67% Calm Calm -- 29.44 in997.0 mb 0.00 in0.0 mm 0.00 in/hr0.0 mm/hr 0.01 in0.3 mm
10:02 PM 32.9°F0.5°C 23.9°F-4.5°C 69% Calm Calm -- 29.44 in997.0 mb 0.00 in0.0 mm 0.00 in/hr0.0 mm/hr 0.01 in0.3 mm
10:16 PM 31.8°F-0.1°C 23.5°F-4.7°C 71% Calm Calm 1.0 mph1.6 kmh 29.43 in996.6 mb 0.00 in0.0 mm 0.00 in/hr0.0 mm/hr 0.01 in0.3 mm
10:31 PM 31.5°F-0.3°C 23.2°F-4.9°C 71% Calm Calm -- 29.43 in996.6 mb 0.00 in0.0 mm 0.00 in/hr0.0 mm/hr 0.01 in0.3 mm
10:46 PM 32.0°F0.0°C 24.3°F-4.3°C 73% Calm Calm -- 29.43 in996.6 mb 0.00 in0.0 mm 0.00 in/hr0.0 mm/hr 0.01 in0.3 mm
11:02 PM 32.6°F0.3°C 24.3°F-4.3°C 71% Calm Calm -- 29.43 in996.6 mb 0.00 in0.0 mm 0.00 in/hr0.0 mm/hr 0.01 in0.3 mm
11:16 PM 32.6°F0.3°C 23.9°F-4.5°C 70% Calm Calm -- 29.43 in996.6 mb 0.00 in0.0 mm 0.00 in/hr0.0 mm/hr 0.01 in0.3 mm
11:32 PM 31.9°F-0.1°C 23.6°F-4.7°C 71% Calm Calm -- 29.43 in996.6 mb 0.00 in0.0 mm 0.00 in/hr0.0 mm/hr 0.01 in0.3 mm
11:46 PM 31.0°F-0.6°C 23.4°F-4.8°C 73% Calm Calm -- 29.43 in996.6 mb 0.00 in0.0 mm 0.00 in/hr0.0 mm/hr 0.01 in0.3 mm